createdAt,value
2018-10-09T00:00:06.533Z,2.20
2018-10-09T00:02:35.927Z,2.80
2018-10-09T00:05:05.823Z,2.97
2018-10-09T00:07:35.350Z,2.40
2018-10-09T00:10:04.868Z,2.27
2018-10-09T00:12:34.220Z,2.30
2018-10-09T00:15:03.685Z,2.90
2018-10-09T00:17:33.034Z,2.40
2018-10-09T00:20:02.442Z,2.67
2018-10-09T00:22:31.859Z,3.10
2018-10-09T00:25:01.258Z,2.40
2018-10-09T00:27:30.619Z,2.80
2018-10-09T00:30:00.044Z,1.83
2018-10-09T00:32:29.483Z,2.43
2018-10-09T00:34:58.835Z,2.60
2018-10-09T00:37:28.217Z,2.30
2018-10-09T00:39:57.665Z,2.53
2018-10-09T00:42:27.036Z,2.70
2018-10-09T00:44:56.482Z,3.03
2018-10-09T00:47:25.864Z,2.73
2018-10-09T00:49:55.303Z,2.87
2018-10-09T00:52:24.709Z,2.57
2018-10-09T00:54:54.156Z,3.23
2018-10-09T00:57:23.515Z,3.23
2018-10-09T00:59:52.919Z,3.60
2018-10-09T01:02:22.360Z,3.87
2018-10-09T01:04:51.812Z,3.73
2018-10-09T01:07:21.246Z,4.60
2018-10-09T01:09:50.636Z,2.70
2018-10-09T01:12:20.100Z,3.60
2018-10-09T01:14:49.525Z,3.23
2018-10-09T01:17:18.963Z,4.97
2018-10-09T01:19:48.392Z,3.23
2018-10-09T01:22:17.818Z,4.63
2018-10-09T01:24:47.197Z,3.87
2018-10-09T01:27:16.560Z,3.57
2018-10-09T01:29:45.943Z,3.70
2018-10-09T01:32:15.314Z,4.17
2018-10-09T01:34:44.723Z,4.90
2018-10-09T01:37:14.107Z,4.17
2018-10-09T01:39:43.564Z,5.07
2018-10-09T01:42:12.906Z,4.50
2018-10-09T01:44:42.277Z,3.47
2018-10-09T01:47:11.643Z,5.30
2018-10-09T01:49:40.988Z,3.50
2018-10-09T01:52:10.409Z,4.40
2018-10-09T01:54:39.767Z,5.10
2018-10-09T01:57:09.149Z,4.37
2018-10-09T01:59:38.523Z,4.10
2018-10-09T02:02:07.865Z,4.17
2018-10-09T02:04:37.303Z,4.40
2018-10-09T02:07:06.923Z,3.30
2018-10-09T02:09:36.327Z,4.13
2018-10-09T02:12:05.751Z,4.47
2018-10-09T02:14:35.198Z,5.10
2018-10-09T02:17:04.601Z,4.70
2018-10-09T02:19:33.938Z,3.97
2018-10-09T02:22:03.395Z,4.10
2018-10-09T02:24:32.747Z,4.10
2018-10-09T02:27:02.260Z,5.57
2018-10-09T02:29:31.651Z,4.33
2018-10-09T02:32:01.027Z,3.90
2018-10-09T02:34:30.406Z,5.40
2018-10-09T02:36:59.760Z,5.23
2018-10-09T02:39:29.140Z,4.40
2018-10-09T02:41:58.543Z,5.27
2018-10-09T02:44:27.939Z,4.70
2018-10-09T02:46:57.275Z,4.53
2018-10-09T02:49:26.762Z,4.20
2018-10-09T02:51:56.127Z,4.63
2018-10-09T02:54:25.506Z,5.57
2018-10-09T02:56:54.918Z,4.73
2018-10-09T02:59:24.257Z,5.10
2018-10-09T03:01:53.774Z,4.77
2018-10-09T03:04:23.114Z,6.83
2018-10-09T03:06:52.470Z,4.50
2018-10-09T03:09:21.858Z,4.40
2018-10-09T03:11:51.314Z,6.33
2018-10-09T03:14:20.692Z,4.53
2018-10-09T03:16:50.057Z,5.17
2018-10-09T03:19:19.423Z,5.53
2018-10-09T03:21:48.836Z,4.33
2018-10-09T03:24:18.203Z,4.97
2018-10-09T03:26:47.619Z,5.27
2018-10-09T03:29:16.999Z,6.40
2018-10-09T03:31:46.379Z,4.63
2018-10-09T03:34:15.791Z,6.27
2018-10-09T03:36:45.155Z,6.70
2018-10-09T03:39:14.542Z,5.73
2018-10-09T03:41:43.902Z,5.30
2018-10-09T03:44:13.351Z,5.83
2018-10-09T03:46:42.844Z,5.40
2018-10-09T03:49:12.287Z,5.60
2018-10-09T03:51:41.707Z,6.30
2018-10-09T03:54:11.046Z,6.33
2018-10-09T03:56:40.459Z,4.90
2018-10-09T03:59:09.895Z,6.30
2018-10-09T04:01:39.524Z,5.70
2018-10-09T04:04:08.903Z,6.83
2018-10-09T04:06:38.388Z,6.00
2018-10-09T04:09:12.604Z,5.37
2018-10-09T04:11:42.432Z,5.70
2018-10-09T04:14:11.813Z,6.73
2018-10-09T04:16:41.207Z,4.77
2018-10-09T04:19:10.585Z,6.30
2018-10-09T04:21:40.020Z,5.40
2018-10-09T04:24:09.468Z,4.17
2018-10-09T04:26:38.860Z,6.07
2018-10-09T04:29:08.215Z,5.30
2018-10-09T04:31:37.580Z,6.17
2018-10-09T04:34:07.780Z,4.73
2018-10-09T04:36:37.194Z,6.73
2018-10-09T04:39:08.962Z,5.50
2018-10-09T04:41:38.380Z,5.60
2018-10-09T04:44:07.873Z,6.27
2018-10-09T04:46:37.204Z,6.00
2018-10-09T04:49:06.595Z,6.13
2018-10-09T04:51:35.930Z,4.73
2018-10-09T04:54:05.347Z,5.17
2018-10-09T04:56:34.700Z,4.00
2018-10-09T04:59:04.117Z,5.33
2018-10-09T05:01:33.504Z,7.07
2018-10-09T05:04:02.924Z,5.43
2018-10-09T05:06:32.307Z,6.47
2018-10-09T05:09:01.683Z,7.03
2018-10-09T05:11:31.107Z,5.80
2018-10-09T05:14:00.477Z,6.33
2018-10-09T05:16:29.884Z,6.03
2018-10-09T05:18:59.246Z,7.60
2018-10-09T05:21:28.608Z,5.00
2018-10-09T05:23:58.103Z,6.07
2018-10-09T05:26:27.455Z,6.57
2018-10-09T05:28:56.866Z,6.33
2018-10-09T05:31:26.273Z,7.07
2018-10-09T05:33:55.709Z,6.77
2018-10-09T05:36:25.179Z,5.80
2018-10-09T05:38:54.595Z,5.30
2018-10-09T05:41:23.971Z,5.57
2018-10-09T05:43:53.360Z,4.80
2018-10-09T05:46:22.788Z,6.87
2018-10-09T05:48:52.130Z,6.17
2018-10-09T05:51:21.557Z,6.53
2018-10-09T05:53:50.955Z,4.73
2018-10-09T05:56:20.316Z,5.63
2018-10-09T05:58:49.722Z,6.40
2018-10-09T06:01:19.172Z,6.13
2018-10-09T06:03:48.627Z,4.70
2018-10-09T06:06:18.003Z,4.43
2018-10-09T06:08:48.331Z,5.40
2018-10-09T06:11:17.727Z,5.63
2018-10-09T06:13:47.183Z,5.60
2018-10-09T06:16:16.609Z,6.20
2018-10-09T06:18:45.987Z,5.77
2018-10-09T06:21:15.395Z,6.03
2018-10-09T06:23:44.759Z,6.60
2018-10-09T06:26:14.180Z,5.40
2018-10-09T06:28:43.548Z,5.40
2018-10-09T06:31:12.901Z,5.13
2018-10-09T06:33:42.381Z,5.87
2018-10-09T06:36:11.751Z,6.17
2018-10-09T06:38:41.193Z,4.83
2018-10-09T06:41:10.604Z,5.43
2018-10-09T06:43:39.944Z,7.37
2018-10-09T06:46:09.358Z,6.13
2018-10-09T06:48:38.675Z,5.27
2018-10-09T06:51:08.087Z,5.77
2018-10-09T06:53:37.514Z,6.27
2018-10-09T06:56:06.839Z,6.57
2018-10-09T06:58:36.299Z,6.60
2018-10-09T07:01:05.741Z,6.17
2018-10-09T07:03:35.105Z,5.73
2018-10-09T07:06:04.521Z,6.70
2018-10-09T07:08:34.331Z,7.27
2018-10-09T07:11:03.767Z,9.67
2018-10-09T07:13:33.307Z,6.90
2018-10-09T07:16:02.680Z,9.40
2018-10-09T07:18:32.140Z,7.63
2018-10-09T07:21:01.531Z,8.63
2018-10-09T07:23:30.894Z,7.10
2018-10-09T07:26:00.296Z,7.73
2018-10-09T07:28:30.552Z,8.10
2018-10-09T07:30:59.959Z,9.57
2018-10-09T07:33:29.409Z,9.37
2018-10-09T07:35:58.871Z,7.57
2018-10-09T07:38:28.562Z,7.23
2018-10-09T07:40:57.954Z,10.00
2018-10-09T07:43:27.324Z,8.20
2018-10-09T07:45:56.690Z,6.50
2018-10-09T07:48:26.132Z,7.13
2018-10-09T07:50:55.541Z,7.63
2018-10-09T07:53:24.948Z,8.33
2018-10-09T07:55:54.345Z,6.80
2018-10-09T07:58:24.025Z,8.87
2018-10-09T08:00:53.491Z,7.00
2018-10-09T08:03:22.964Z,7.27
2018-10-09T08:05:52.359Z,7.43
2018-10-09T08:08:22.014Z,7.60
2018-10-09T08:10:51.478Z,6.63
2018-10-09T08:13:20.858Z,6.80
2018-10-09T08:15:50.263Z,6.40
2018-10-09T08:18:19.771Z,7.30
2018-10-09T08:20:49.140Z,7.70
2018-10-09T08:23:18.539Z,6.63
2018-10-09T08:25:47.954Z,6.57
2018-10-09T08:28:17.367Z,6.20
2018-10-09T08:30:46.783Z,8.17
2018-10-09T08:33:16.211Z,5.37
2018-10-09T08:35:45.612Z,7.47
2018-10-09T08:38:15.030Z,5.20
2018-10-09T08:40:44.428Z,5.53
2018-10-09T08:43:13.814Z,6.17
2018-10-09T08:45:43.531Z,5.90
2018-10-09T08:48:12.909Z,5.00
2018-10-09T08:50:42.358Z,5.33
2018-10-09T08:53:11.737Z,4.87
2018-10-09T08:55:42.328Z,8.23
2018-10-09T08:58:11.724Z,5.17
2018-10-09T09:00:41.132Z,6.30
2018-10-09T09:03:10.544Z,6.03
2018-10-09T09:05:40.626Z,5.40
2018-10-09T09:08:10.145Z,4.93
2018-10-09T09:10:39.515Z,5.20
2018-10-09T09:13:08.919Z,5.70
2018-10-09T09:15:39.095Z,6.80
2018-10-09T09:18:08.527Z,6.00
2018-10-09T09:20:38.097Z,6.73
2018-10-09T09:23:07.404Z,7.23
2018-10-09T09:25:37.009Z,8.13
2018-10-09T09:28:06.649Z,7.07
2018-10-09T09:30:36.130Z,7.80
2018-10-09T09:33:05.535Z,6.63
2018-10-09T09:35:35.040Z,5.20
2018-10-09T09:38:04.480Z,5.80
2018-10-09T09:40:33.983Z,5.20
2018-10-09T09:43:03.488Z,4.97
2018-10-09T09:45:32.831Z,5.13
2018-10-09T09:48:02.221Z,7.73
2018-10-09T09:50:31.665Z,5.77
2018-10-09T09:53:01.176Z,4.73
2018-10-09T09:55:30.599Z,5.47
2018-10-09T09:58:00.140Z,5.37
2018-10-09T10:00:34.827Z,5.73
2018-10-09T10:03:04.339Z,7.50
2018-10-09T10:05:33.859Z,5.80
2018-10-09T10:08:03.235Z,5.80
2018-10-09T10:10:32.651Z,8.40
2018-10-09T10:13:02.124Z,7.50
2018-10-09T10:15:31.543Z,7.30
2018-10-09T10:18:00.956Z,5.80
2018-10-09T10:20:30.424Z,7.10
2018-10-09T10:22:59.790Z,8.00
2018-10-09T10:25:29.224Z,8.23
2018-10-09T10:27:58.775Z,9.53
2018-10-09T10:30:28.149Z,9.03
2018-10-09T10:32:57.539Z,8.90
2018-10-09T10:35:27.018Z,7.40
2018-10-09T10:37:56.438Z,7.63
2018-10-09T10:40:25.881Z,9.37
2018-10-09T10:42:55.651Z,8.97
2018-10-09T10:45:25.009Z,8.10
2018-10-09T10:47:54.424Z,11.10
2018-10-09T10:50:23.934Z,8.90
2018-10-09T10:52:53.364Z,8.83
2018-10-09T10:55:22.747Z,7.80
2018-10-09T10:57:52.111Z,8.63
2018-10-09T11:00:21.545Z,9.43
2018-10-09T11:02:50.899Z,9.37
2018-10-09T11:05:20.263Z,7.93
2018-10-09T11:07:49.693Z,9.37
2018-10-09T11:10:19.044Z,7.93
2018-10-09T11:12:48.487Z,9.57
2018-10-09T11:15:17.874Z,8.80
2018-10-09T11:17:47.285Z,7.57
2018-10-09T11:20:17.019Z,7.67
2018-10-09T11:22:46.454Z,8.57
2018-10-09T11:25:16.022Z,8.70
2018-10-09T11:27:45.452Z,6.10
2018-10-09T11:30:14.906Z,9.10
2018-10-09T11:32:44.241Z,7.23
2018-10-09T11:35:13.688Z,7.60
2018-10-09T11:37:43.062Z,9.77
2018-10-09T11:40:12.442Z,8.40
2018-10-09T11:42:41.845Z,6.70
2018-10-09T11:45:11.304Z,7.20
2018-10-09T11:47:40.692Z,6.77
2018-10-09T11:50:10.158Z,7.70
2018-10-09T11:52:39.633Z,6.03
2018-10-09T11:55:09.033Z,6.20
2018-10-09T11:57:38.464Z,7.70
2018-10-09T12:00:08.994Z,8.87
2018-10-09T12:02:38.414Z,6.00
2018-10-09T12:05:07.891Z,7.30
2018-10-09T12:07:37.288Z,6.80
2018-10-09T12:10:06.719Z,7.47
2018-10-09T12:12:36.113Z,6.93
2018-10-09T12:15:05.755Z,7.17
2018-10-09T12:17:35.246Z,4.90
2018-10-09T12:20:05.368Z,6.40
2018-10-09T12:22:34.725Z,6.20
2018-10-09T12:25:04.168Z,6.50
2018-10-09T12:27:33.566Z,5.10
2018-10-09T12:30:02.980Z,6.17
2018-10-09T12:32:32.439Z,5.03
2018-10-09T12:35:01.858Z,5.70
2018-10-09T12:37:31.259Z,5.20
2018-10-09T12:40:00.615Z,5.30
2018-10-09T12:42:29.981Z,5.80
2018-10-09T12:44:59.414Z,5.90
2018-10-09T12:47:28.786Z,4.80
2018-10-09T12:49:58.816Z,4.53
2018-10-09T12:52:28.224Z,3.67
2018-10-09T12:54:57.851Z,5.70
2018-10-09T12:57:27.216Z,4.70
2018-10-09T12:59:56.660Z,6.20
2018-10-09T13:02:26.124Z,5.13
2018-10-09T13:04:55.414Z,4.50
2018-10-09T13:07:24.888Z,5.10
2018-10-09T13:09:54.362Z,5.03
2018-10-09T13:12:23.759Z,5.87
2018-10-09T13:14:53.276Z,4.43
2018-10-09T13:17:22.781Z,5.07
2018-10-09T13:19:52.256Z,4.73
2018-10-09T13:22:21.878Z,4.70
2018-10-09T13:24:51.078Z,4.17
2018-10-09T13:27:20.468Z,4.20
2018-10-09T13:29:49.932Z,3.90
2018-10-09T13:32:19.355Z,3.33
2018-10-09T13:37:32.373Z,4.07
2018-10-09T13:40:02.703Z,3.30
2018-10-09T13:42:32.143Z,4.47
2018-10-09T13:45:01.481Z,3.43
2018-10-09T13:47:31.087Z,3.50
2018-10-09T13:50:00.291Z,3.17
2018-10-09T13:52:29.714Z,2.70
2018-10-09T13:54:59.101Z,2.80
2018-10-09T13:57:27.594Z,4.70
2018-10-09T13:59:57.016Z,3.70
2018-10-09T14:02:26.406Z,3.90
2018-10-09T14:04:55.822Z,3.70
2018-10-09T14:07:25.444Z,3.93
2018-10-09T14:09:54.846Z,4.13
2018-10-09T14:12:24.190Z,5.30
2018-10-09T14:14:53.736Z,3.57
2018-10-09T14:17:23.106Z,4.13
2018-10-09T14:19:52.592Z,2.90
2018-10-09T14:22:22.548Z,2.77
2018-10-09T14:24:51.955Z,4.23
2018-10-09T14:27:21.389Z,2.80
2018-10-09T14:29:50.764Z,3.10
2018-10-09T14:32:20.180Z,3.10
2018-10-09T14:34:49.596Z,3.43
2018-10-09T14:37:18.965Z,3.43
2018-10-09T14:39:48.345Z,3.80
2018-10-09T14:42:18.142Z,3.70
2018-10-09T14:44:47.597Z,3.90
2018-10-09T14:47:17.014Z,3.80
2018-10-09T14:49:46.483Z,3.10
2018-10-09T14:52:15.886Z,3.40
2018-10-09T14:54:45.278Z,3.53
2018-10-09T14:57:14.655Z,2.93
2018-10-09T14:59:44.038Z,3.83
2018-10-09T15:02:13.503Z,3.63
2018-10-09T15:04:42.948Z,2.67
2018-10-09T15:07:12.409Z,3.80
2018-10-09T15:09:41.895Z,3.67
2018-10-09T15:12:11.248Z,3.13
2018-10-09T15:14:40.629Z,3.60
2018-10-09T15:17:10.150Z,2.50
2018-10-09T15:19:39.420Z,3.07
2018-10-09T15:22:08.874Z,3.03
2018-10-09T15:24:38.249Z,3.30
2018-10-09T15:27:07.644Z,2.87
2018-10-09T15:29:37.067Z,3.30
2018-10-09T15:32:06.458Z,2.77
2018-10-09T15:34:35.904Z,3.47
2018-10-09T15:37:05.273Z,3.47
2018-10-09T15:39:34.771Z,3.47
2018-10-09T15:42:04.223Z,2.43
2018-10-09T15:44:33.653Z,2.33
2018-10-09T15:47:03.036Z,2.40
2018-10-09T15:49:32.475Z,3.27
2018-10-09T15:52:01.853Z,2.77
2018-10-09T15:54:31.254Z,3.57
2018-10-09T15:57:00.743Z,3.10
2018-10-09T15:59:30.114Z,4.00
2018-10-09T16:01:59.536Z,3.37
2018-10-09T16:04:28.976Z,4.13
2018-10-09T16:06:58.471Z,2.70
2018-10-09T16:09:28.004Z,2.50
2018-10-09T16:11:57.379Z,2.80
2018-10-09T16:14:26.783Z,1.77
2018-10-09T16:16:56.204Z,2.70
2018-10-09T16:19:25.686Z,3.00
2018-10-09T16:21:55.135Z,2.57
2018-10-09T16:24:24.546Z,3.20
2018-10-09T16:27:00.283Z,3.10
2018-10-09T16:29:29.677Z,2.53
2018-10-09T16:31:59.047Z,2.83
2018-10-09T16:34:28.420Z,5.20
2018-10-09T16:36:57.806Z,3.97
2018-10-09T16:39:27.186Z,3.20
2018-10-09T16:41:56.680Z,4.43
2018-10-09T16:44:26.064Z,2.87
2018-10-09T16:46:55.492Z,2.63
2018-10-09T16:49:24.943Z,2.70
2018-10-09T16:51:54.334Z,3.00
2018-10-09T16:54:23.775Z,2.63
2018-10-09T16:56:53.143Z,2.67
2018-10-09T16:59:22.584Z,3.13
2018-10-09T17:01:51.955Z,3.13
2018-10-09T17:04:21.356Z,3.07
2018-10-09T17:06:50.717Z,3.20
2018-10-09T17:09:20.125Z,3.30
2018-10-09T17:11:49.530Z,3.67
2018-10-09T17:14:19.028Z,3.47
2018-10-09T17:16:48.833Z,3.17
2018-10-09T17:19:18.354Z,3.63
2018-10-09T17:21:48.158Z,3.23
2018-10-09T17:24:17.508Z,2.77
2018-10-09T17:26:46.925Z,3.07
2018-10-09T17:29:16.319Z,3.83
2018-10-09T17:31:45.675Z,3.40
2018-10-09T17:34:15.071Z,3.37
2018-10-09T17:36:44.468Z,3.37
2018-10-09T17:39:14.004Z,4.20
2018-10-09T17:41:43.426Z,3.17
2018-10-09T17:44:12.795Z,3.63
2018-10-09T17:46:42.216Z,3.10
2018-10-09T17:49:11.611Z,2.77
2018-10-09T17:51:40.995Z,3.13
2018-10-09T17:54:11.204Z,2.97
2018-10-09T17:56:40.588Z,3.37
2018-10-09T17:59:10.014Z,3.30
2018-10-09T18:01:39.488Z,3.37
2018-10-09T18:04:09.048Z,3.27
2018-10-09T18:06:38.512Z,3.03
2018-10-09T18:09:11.513Z,3.07
2018-10-09T18:11:41.404Z,4.30
2018-10-09T18:14:11.632Z,4.40
2018-10-09T18:16:41.065Z,3.47
2018-10-09T18:19:10.468Z,3.30
2018-10-09T18:21:39.807Z,3.20
2018-10-09T18:24:09.196Z,2.57
2018-10-09T18:26:38.933Z,3.70
2018-10-09T18:29:08.464Z,3.90
2018-10-09T18:31:37.905Z,4.00
2018-10-09T18:34:07.425Z,2.60
2018-10-09T18:36:36.877Z,2.93
2018-10-09T18:39:11.512Z,3.37
2018-10-09T18:41:41.285Z,3.10
2018-10-09T18:44:10.673Z,2.30
2018-10-09T18:46:40.434Z,2.10
2018-10-09T18:49:10.101Z,3.20
2018-10-09T18:51:39.839Z,3.03
2018-10-09T18:54:09.443Z,2.50
2018-10-09T18:56:38.955Z,2.30
2018-10-09T18:59:08.482Z,3.00
2018-10-09T19:01:38.085Z,4.27
2018-10-09T19:04:07.997Z,2.80
2018-10-09T19:06:37.476Z,3.97
2018-10-09T19:09:10.968Z,2.90
2018-10-09T19:11:40.468Z,3.07
2018-10-09T19:14:09.853Z,2.73
2018-10-09T19:16:39.331Z,3.40
2018-10-09T19:19:08.790Z,3.47
2018-10-09T19:21:38.311Z,3.30
2018-10-09T19:24:08.147Z,3.13
2018-10-09T19:26:37.601Z,2.60
2018-10-09T19:29:07.035Z,3.30
2018-10-09T19:31:36.452Z,2.60
2018-10-09T19:34:06.215Z,2.50
2018-10-09T19:36:35.648Z,1.70
2018-10-09T19:39:08.230Z,1.77
2018-10-09T19:41:37.600Z,2.60
2018-10-09T19:44:07.016Z,3.30
2018-10-09T19:46:36.963Z,3.10
2018-10-09T19:49:06.444Z,3.23
2018-10-09T19:51:35.946Z,3.50
2018-10-09T19:54:05.382Z,3.53
2018-10-09T19:56:34.759Z,3.87
2018-10-09T19:59:04.293Z,3.47
2018-10-09T20:01:33.997Z,5.40
2018-10-09T20:04:03.466Z,3.03
2018-10-09T20:06:33.105Z,3.40
2018-10-09T20:09:02.607Z,3.13
2018-10-09T20:11:32.073Z,3.63
2018-10-09T20:14:01.501Z,3.10
2018-10-09T20:16:30.980Z,2.53
2018-10-09T20:19:00.375Z,2.90
2018-10-09T20:21:29.756Z,2.53
2018-10-09T20:23:59.165Z,2.80
2018-10-09T20:26:28.661Z,2.70
2018-10-09T20:28:58.045Z,3.77
2018-10-09T20:31:27.547Z,3.27
2018-10-09T20:33:56.947Z,3.17
2018-10-09T20:36:26.519Z,2.90
2018-10-09T20:38:55.975Z,2.50
2018-10-09T20:41:25.388Z,2.27
2018-10-09T20:43:54.807Z,3.10
2018-10-09T20:46:24.279Z,2.20
2018-10-09T20:48:53.638Z,2.13
2018-10-09T20:51:23.058Z,3.10
2018-10-09T20:53:52.452Z,3.20
2018-10-09T20:56:21.818Z,3.47
2018-10-09T20:58:51.274Z,3.57
2018-10-09T21:01:20.755Z,3.33
2018-10-09T21:03:50.148Z,2.77
2018-10-09T21:06:19.581Z,3.50
2018-10-09T21:08:49.225Z,2.70
2018-10-09T21:11:18.638Z,3.43
2018-10-09T21:13:47.983Z,2.80
2018-10-09T21:16:17.362Z,2.67
2018-10-09T21:18:46.755Z,3.07
2018-10-09T21:21:16.219Z,2.90
2018-10-09T21:23:45.620Z,2.77
2018-10-09T21:26:14.959Z,3.50
2018-10-09T21:28:44.358Z,4.20
2018-10-09T21:31:13.723Z,3.50
2018-10-09T21:33:43.137Z,3.93
2018-10-09T21:36:12.492Z,5.23
2018-10-09T21:38:41.947Z,4.77
2018-10-09T21:41:11.316Z,4.27
2018-10-09T21:43:40.759Z,4.17
2018-10-09T21:46:10.158Z,3.90
2018-10-09T21:48:39.544Z,4.50
2018-10-09T21:51:09.004Z,3.30
2018-10-09T21:53:38.390Z,3.60
2018-10-09T21:56:07.835Z,3.63
2018-10-09T21:58:37.184Z,2.70
2018-10-09T22:01:11.395Z,2.30
2018-10-09T22:03:41.495Z,1.97
2018-10-09T22:06:11.315Z,1.97
2018-10-09T22:08:40.692Z,1.80
2018-10-09T22:11:10.041Z,2.50
2018-10-09T22:13:39.419Z,2.90
2018-10-09T22:16:08.803Z,2.50
2018-10-09T22:18:38.207Z,3.90
2018-10-09T22:21:07.792Z,2.17
2018-10-09T22:23:37.203Z,3.40
2018-10-09T22:26:06.592Z,2.20
2018-10-09T22:28:35.967Z,3.20
2018-10-09T22:31:05.389Z,2.33
2018-10-09T22:33:34.801Z,2.50
2018-10-09T22:36:04.162Z,2.30
2018-10-09T22:38:33.625Z,2.83
2018-10-09T22:41:02.961Z,1.80
2018-10-09T22:43:32.298Z,3.20
2018-10-09T22:46:02.030Z,3.27
2018-10-09T22:48:31.427Z,2.03
2018-10-09T22:51:00.802Z,2.60
2018-10-09T22:53:30.287Z,3.20
2018-10-09T22:55:59.663Z,3.40
2018-10-09T22:58:29.024Z,3.20
2018-10-09T23:00:58.371Z,2.77
2018-10-09T23:03:27.818Z,3.07
2018-10-09T23:05:57.183Z,1.93
2018-10-09T23:08:26.535Z,1.80
2018-10-09T23:10:55.925Z,1.47
2018-10-09T23:13:25.235Z,2.57
2018-10-09T23:15:54.590Z,2.50
2018-10-09T23:18:23.967Z,2.90
2018-10-09T23:20:53.360Z,3.03
2018-10-09T23:23:22.678Z,2.70
2018-10-09T23:25:52.024Z,2.77
2018-10-09T23:28:21.413Z,3.27
2018-10-09T23:30:50.786Z,3.40
2018-10-09T23:33:26.910Z,4.00
2018-10-09T23:35:56.248Z,3.33
2018-10-09T23:38:25.613Z,4.20
2018-10-09T23:40:54.995Z,3.87
2018-10-09T23:43:24.376Z,2.77
2018-10-09T23:45:53.780Z,4.00
2018-10-09T23:48:23.195Z,2.40
2018-10-09T23:50:52.703Z,3.10
2018-10-09T23:53:22.045Z,4.00
2018-10-09T23:55:51.431Z,4.20
2018-10-09T23:58:20.777Z,4.07
